Time;durP1;ratioP1;P1;durP2;ratioP2;P2;SDS_P1;SDS_P2;PMS_P1;PMS_P2;Temp;Humidity;BMP_temperature;BMP_pressure;BME280_temperature;BME280_humidity;BME280_pressure;Samples;Min_cycle;Max_cycle;Signal;HPM_P1;HPM_P2
2024/03/03 00:01:08;;;;;;;9.30;8.50;;;7.30;99.90;;;;;;4995406;28;20269;-65
2024/03/03 00:03:36;;;;;;;10.63;9.53;;;7.30;99.90;;;;;;4992254;28;20288;-65
2024/03/03 00:06:06;;;;;;;10.13;9.10;;;7.30;99.90;;;;;;4992387;28;20273;-65
2024/03/03 00:08:37;;;;;;;10.40;9.40;;;7.30;99.90;;;;;;4992022;28;20276;-64
2024/03/03 00:11:05;;;;;;;10.07;9.07;;;7.30;99.90;;;;;;4990360;28;20218;-65
2024/03/03 00:13:34;;;;;;;9.73;8.83;;;7.30;99.90;;;;;;4987427;28;20223;-65
2024/03/03 00:16:04;;;;;;;9.87;8.93;;;7.30;99.90;;;;;;4986434;28;20218;-64
2024/03/03 00:18:37;;;;;;;10.70;9.23;;;7.30;99.90;;;;;;4989942;28;20697;-65
2024/03/03 00:21:12;;;;;;;10.60;9.50;;;7.30;99.90;;;;;;4993860;28;20759;-65
2024/03/03 00:23:42;;;;;;;11.17;9.37;;;7.30;99.90;;;;;;4991943;28;20198;-65
2024/03/03 00:26:10;;;;;;;11.23;10.13;;;7.30;99.90;;;;;;4994780;28;20269;-65
2024/03/03 00:28:39;;;;;;;11.83;10.33;;;7.30;99.90;;;;;;4993278;28;20713;-64
2024/03/03 00:31:08;;;;;;;11.17;9.97;;;7.30;99.90;;;;;;4998702;28;20603;-64
2024/03/03 00:33:36;;;;;;;11.47;10.30;;;7.20;99.90;;;;;;4993422;28;20231;-65
2024/03/03 00:36:08;;;;;;;13.27;9.83;;;7.30;99.90;;;;;;4987758;28;20237;-65
2024/03/03 00:38:38;;;;;;;10.73;9.67;;;7.20;99.90;;;;;;4988210;28;20198;-64
2024/03/03 00:41:07;;;;;;;12.17;10.50;;;7.30;99.90;;;;;;4987842;28;20179;-65
2024/03/03 00:43:37;;;;;;;11.37;10.17;;;7.20;99.90;;;;;;5014413;28;20220;-64
2024/03/03 00:46:06;;;;;;;12.00;10.07;;;7.20;99.90;;;;;;5013132;28;20233;-64
2024/03/03 00:48:34;;;;;;;13.03;9.60;;;7.20;99.90;;;;;;5011468;28;20292;-65
2024/03/03 00:51:02;;;;;;;11.10;9.50;;;7.20;99.90;;;;;;5015475;28;20304;-64
2024/03/03 00:53:31;;;;;;;12.50;10.07;;;7.20;99.90;;;;;;5016595;28;20206;-64
2024/03/03 00:56:00;;;;;;;14.80;10.33;;;7.20;99.90;;;;;;5009989;28;20313;-64
2024/03/03 00:58:30;;;;;;;15.17;10.77;;;7.20;99.90;;;;;;5015880;28;20232;-65
2024/03/03 01:00:58;;;;;;;16.67;11.47;;;7.20;99.90;;;;;;5014284;28;20219;-64
2024/03/03 01:03:26;;;;;;;16.27;12.00;;;7.20;99.90;;;;;;5014050;28;20726;-64
2024/03/03 01:05:54;;;;;;;16.27;12.50;;;7.20;99.90;;;;;;5016965;28;20226;-64
2024/03/03 01:08:22;;;;;;;17.17;13.93;;;7.10;99.90;;;;;;5011374;28;20259;-64
2024/03/03 01:10:51;;;;;;;17.40;13.53;;;7.10;99.90;;;;;;5018231;28;20196;-64
2024/03/03 01:13:19;;;;;;;17.07;13.13;;;7.10;99.90;;;;;;5013041;28;20228;-64
2024/03/03 01:15:49;;;;;;;19.23;14.73;;;7.20;99.90;;;;;;5011754;28;20226;-64
2024/03/03 01:18:17;;;;;;;19.00;14.67;;;7.10;99.90;;;;;;5015049;28;20313;-64
2024/03/03 01:20:47;;;;;;;18.87;14.37;;;7.10;99.90;;;;;;5008128;28;20214;-64
2024/03/03 01:23:17;;;;;;;22.07;15.73;;;7.10;99.90;;;;;;5020263;28;20187;-64
2024/03/03 01:25:46;;;;;;;21.27;16.00;;;7.10;99.90;;;;;;5020116;28;20233;-64
2024/03/03 01:28:14;;;;;;;19.80;15.73;;;7.00;99.90;;;;;;5016560;28;20274;-64
2024/03/03 01:30:43;;;;;;;19.47;15.43;;;7.00;99.90;;;;;;5014317;28;20214;-65
2024/03/03 01:33:12;;;;;;;22.03;15.83;;;7.00;99.90;;;;;;5018334;28;20264;-64
2024/03/03 01:35:40;;;;;;;20.60;15.53;;;7.00;99.90;;;;;;5013130;28;20573;-64
2024/03/03 01:38:09;;;;;;;18.57;14.43;;;7.00;99.90;;;;;;5019478;28;20640;-64
2024/03/03 01:40:37;;;;;;;17.90;13.80;;;7.00;99.90;;;;;;5016384;28;20213;-64
2024/03/03 01:43:07;;;;;;;16.40;14.07;;;7.00;99.90;;;;;;5002036;28;20234;-64
2024/03/03 01:45:35;;;;;;;19.73;14.83;;;7.00;99.90;;;;;;5007977;28;20256;-64
2024/03/03 01:48:04;;;;;;;18.67;14.50;;;7.00;99.90;;;;;;5016475;28;20221;-65
2024/03/03 01:50:34;;;;;;;19.43;15.07;;;7.00;99.90;;;;;;5014893;28;20198;-65
2024/03/03 01:53:04;;;;;;;19.77;14.73;;;7.00;99.90;;;;;;5012588;28;20218;-65
2024/03/03 01:55:32;;;;;;;19.63;15.50;;;6.90;99.90;;;;;;5012928;28;20234;-65
2024/03/03 01:58:03;;;;;;;21.00;15.67;;;6.90;99.90;;;;;;5021586;28;20221;-65
2024/03/03 02:00:34;;;;;;;23.80;15.97;;;6.90;99.90;;;;;;5017296;28;20222;-65
2024/03/03 02:03:05;;;;;;;24.03;17.70;;;6.90;99.90;;;;;;5013206;28;20222;-65
2024/03/03 02:05:37;;;;;;;22.97;17.13;;;6.90;99.90;;;;;;5019025;28;20244;-65
2024/03/03 02:08:06;;;;;;;25.00;17.13;;;6.90;99.90;;;;;;5015023;28;20245;-65
2024/03/03 02:10:35;;;;;;;25.37;18.83;;;6.90;99.90;;;;;;5015165;28;20229;-65
2024/03/03 02:13:04;;;;;;;25.57;19.33;;;6.90;99.90;;;;;;5012887;28;20783;-65
2024/03/03 02:15:32;;;;;;;28.17;19.70;;;6.90;99.90;;;;;;5012435;28;20313;-65
2024/03/03 02:18:01;;;;;;;25.20;18.20;;;7.00;99.90;;;;;;5007917;28;20300;-66
2024/03/03 02:20:29;;;;;;;27.07;18.53;;;6.90;99.90;;;;;;5012535;28;20213;-65
2024/03/03 02:22:59;;;;;;;26.30;19.27;;;6.90;99.90;;;;;;5014580;28;20288;-65
2024/03/03 02:25:27;;;;;;;25.67;18.00;;;6.90;99.90;;;;;;4989151;28;20640;-65
2024/03/03 02:27:55;;;;;;;28.93;19.00;;;6.90;99.90;;;;;;4993845;28;20222;-65
2024/03/03 02:30:24;;;;;;;28.70;18.97;;;6.90;99.90;;;;;;4996797;28;20308;-65
2024/03/03 02:32:52;;;;;;;25.63;18.43;;;6.90;99.90;;;;;;4996535;28;20242;-65
2024/03/03 02:35:20;;;;;;;31.20;19.07;;;6.90;99.90;;;;;;4991386;28;20202;-65
2024/03/03 02:37:49;;;;;;;27.73;18.57;;;6.90;99.90;;;;;;4996144;28;20215;-65
2024/03/03 02:40:18;;;;;;;28.00;18.13;;;6.90;99.90;;;;;;4992427;28;20256;-65
2024/03/03 02:42:47;;;;;;;29.07;18.13;;;6.90;99.90;;;;;;4991141;28;20577;-65
2024/03/03 02:45:15;;;;;;;30.93;19.53;;;6.90;99.90;;;;;;4991159;28;20226;-65
2024/03/03 02:47:44;;;;;;;29.53;18.50;;;6.90;99.90;;;;;;4996738;28;20222;-65
2024/03/03 02:50:15;;;;;;;35.33;20.87;;;6.90;99.90;;;;;;4995564;28;20196;-65
2024/03/03 02:52:43;;;;;;;31.23;19.10;;;6.90;99.90;;;;;;4993662;28;20296;-65
2024/03/03 02:55:12;;;;;;;32.37;19.90;;;6.90;99.90;;;;;;5026446;28;20558;-65
2024/03/03 02:57:42;;;;;;;29.57;19.73;;;6.90;99.90;;;;;;4998661;28;20318;-65
2024/03/03 03:00:12;;;;;;;31.43;19.57;;;6.90;99.90;;;;;;5012249;28;20229;-65
2024/03/03 03:02:40;;;;;;;30.20;18.90;;;6.90;99.90;;;;;;5016965;28;20653;-66
2024/03/03 03:05:09;;;;;;;31.43;19.53;;;6.90;99.90;;;;;;5011702;28;20288;-66
2024/03/03 03:07:37;;;;;;;32.77;20.93;;;6.90;99.90;;;;;;5007895;28;20333;-65
2024/03/03 03:10:07;;;;;;;32.37;20.40;;;6.90;99.90;;;;;;5013307;28;20225;-65
2024/03/03 03:12:35;;;;;;;34.73;21.00;;;6.90;99.90;;;;;;4998559;28;20223;-65
2024/03/03 03:15:06;;;;;;;36.17;21.07;;;6.90;99.90;;;;;;4988485;28;20610;-65
2024/03/03 03:17:34;;;;;;;32.83;21.13;;;6.90;99.90;;;;;;4984572;28;20214;-65
2024/03/03 03:20:04;;;;;;;36.33;23.70;;;6.90;99.90;;;;;;4997015;28;20209;-65
2024/03/03 03:22:33;;;;;;;38.03;22.23;;;6.90;99.90;;;;;;4989220;28;20225;-65
2024/03/03 03:25:01;;;;;;;38.73;23.53;;;6.90;99.90;;;;;;4994384;28;20211;-65
2024/03/03 03:27:29;;;;;;;46.20;25.93;;;6.90;99.90;;;;;;4985640;28;20246;-65
2024/03/03 03:29:58;;;;;;;42.87;24.40;;;6.90;99.90;;;;;;4996177;28;20230;-65
2024/03/03 03:32:27;;;;;;;47.17;26.20;;;6.90;99.90;;;;;;4990031;28;20628;-64
2024/03/03 03:34:56;;;;;;;46.63;25.67;;;6.90;99.90;;;;;;4993021;28;20214;-66
2024/03/03 03:37:24;;;;;;;42.17;25.47;;;6.90;99.90;;;;;;5002685;28;20681;-65
2024/03/03 03:39:52;;;;;;;43.53;26.00;;;6.90;99.90;;;;;;5000054;28;20320;-65
2024/03/03 03:42:21;;;;;;;42.30;25.50;;;6.90;99.90;;;;;;4992738;28;20288;-65
2024/03/03 03:44:49;;;;;;;40.67;25.00;;;6.80;99.90;;;;;;4996806;28;20210;-66
2024/03/03 03:47:17;;;;;;;41.97;24.37;;;6.90;99.90;;;;;;4987705;28;20538;-66
2024/03/03 03:49:46;;;;;;;42.53;25.87;;;6.80;99.90;;;;;;5016129;28;20217;-65
2024/03/03 03:52:15;;;;;;;41.87;25.77;;;6.80;99.90;;;;;;5013226;28;20217;-66
2024/03/03 03:54:43;;;;;;;44.37;25.97;;;6.80;99.90;;;;;;5011911;28;20284;-66
2024/03/03 03:57:11;;;;;;;44.03;25.80;;;6.80;99.90;;;;;;5011950;28;20631;-66
2024/03/03 03:59:39;;;;;;;43.90;25.83;;;6.80;99.90;;;;;;5011692;28;20692;-65
2024/03/03 04:02:09;;;;;;;41.77;25.90;;;6.80;99.90;;;;;;5014688;28;20206;-66
2024/03/03 04:04:37;;;;;;;45.03;27.73;;;6.80;99.90;;;;;;5015199;28;20218;-65
2024/03/03 04:07:07;;;;;;;43.17;26.13;;;6.80;99.90;;;;;;5010867;28;20217;-66
2024/03/03 04:09:35;;;;;;;45.50;25.60;;;6.80;99.90;;;;;;5013008;28;20685;-65
2024/03/03 04:12:04;;;;;;;44.60;25.50;;;6.80;99.90;;;;;;5013739;28;20300;-66
2024/03/03 04:14:33;;;;;;;40.50;24.57;;;6.70;99.90;;;;;;5008819;28;20614;-65
2024/03/03 04:17:01;;;;;;;45.23;26.13;;;6.70;99.90;;;;;;4988762;28;20208;-65
2024/03/03 04:19:29;;;;;;;44.20;25.40;;;6.70;99.90;;;;;;4991403;28;20222;-65
2024/03/03 04:21:58;;;;;;;45.53;26.20;;;6.70;99.90;;;;;;4989062;28;20559;-65
2024/03/03 04:24:28;;;;;;;48.00;25.73;;;6.70;99.90;;;;;;4997106;28;20222;-66
2024/03/03 04:26:56;;;;;;;44.83;25.03;;;6.70;99.90;;;;;;4994108;28;20222;-66
2024/03/03 04:29:24;;;;;;;43.90;25.00;;;6.60;99.90;;;;;;4995281;28;20202;-66
2024/03/03 04:31:54;;;;;;;45.97;25.40;;;6.70;99.90;;;;;;4997834;28;20652;-65
2024/03/03 04:34:25;;;;;;;44.50;23.93;;;6.60;99.90;;;;;;4991637;28;20787;-65
2024/03/03 04:36:54;;;;;;;44.93;24.03;;;6.60;99.90;;;;;;4998142;28;20638;-65
2024/03/03 04:39:22;;;;;;;49.67;26.03;;;6.60;99.90;;;;;;4997594;28;20226;-65
2024/03/03 04:41:52;;;;;;;45.63;24.63;;;6.60;99.90;;;;;;4995375;28;20237;-65
2024/03/03 04:44:20;;;;;;;47.00;25.43;;;6.60;99.90;;;;;;4992170;28;21166;-65
2024/03/03 04:46:48;;;;;;;48.90;24.57;;;6.60;99.90;;;;;;5013217;28;20219;-65
2024/03/03 04:49:17;;;;;;;45.67;24.23;;;6.60;99.90;;;;;;5015413;28;22768;-65
2024/03/03 04:51:45;;;;;;;47.37;24.47;;;6.60;99.90;;;;;;5009998;28;20221;-65
2024/03/03 04:54:13;;;;;;;50.43;25.07;;;6.60;99.90;;;;;;5013410;28;20676;-65
2024/03/03 04:56:42;;;;;;;46.87;23.10;;;6.60;99.90;;;;;;5015970;28;20244;-65
2024/03/03 04:59:12;;;;;;;47.23;24.17;;;6.70;99.90;;;;;;5013113;28;20202;-65
2024/03/03 05:01:42;;;;;;;47.80;24.80;;;6.60;99.90;;;;;;5012764;28;20218;-65
2024/03/03 05:04:11;;;;;;;46.23;23.70;;;6.70;99.90;;;;;;5021659;28;20593;-65
2024/03/03 05:06:44;;;;;;;49.20;24.33;;;6.70;99.90;;;;;;5014657;28;20218;-65
2024/03/03 05:09:13;;;;;;;52.40;25.57;;;6.70;99.90;;;;;;5011755;28;20224;-65
2024/03/03 05:11:41;;;;;;;53.60;25.50;;;6.70;99.90;;;;;;5017950;28;21273;-65
2024/03/03 05:14:10;;;;;;;52.33;25.77;;;6.70;99.90;;;;;;5007908;28;20680;-65
2024/03/03 05:16:41;;;;;;;49.13;25.83;;;6.70;99.90;;;;;;5010481;28;20579;-65
2024/03/03 05:19:09;;;;;;;46.93;24.17;;;6.70;99.90;;;;;;5018371;28;20230;-65
2024/03/03 05:21:38;;;;;;;45.87;24.40;;;6.70;99.90;;;;;;5011502;28;20214;-65
2024/03/03 05:24:06;;;;;;;48.83;24.77;;;6.70;99.90;;;;;;5018852;28;20226;-65
2024/03/03 05:26:34;;;;;;;41.20;23.23;;;6.70;99.90;;;;;;5024014;28;20794;-65
2024/03/03 05:29:04;;;;;;;42.93;22.37;;;6.70;99.90;;;;;;5014953;28;20553;-65
2024/03/03 05:31:41;;;;;;;45.60;23.17;;;6.70;99.90;;;;;;5017268;28;20232;-65
2024/03/03 05:34:12;;;;;;;48.07;23.50;;;6.70;99.90;;;;;;5012380;28;20221;-65
2024/03/03 05:36:41;;;;;;;47.90;24.80;;;6.70;99.90;;;;;;5008521;28;20233;-65
2024/03/03 05:39:10;;;;;;;51.07;24.30;;;6.70;99.90;;;;;;5018242;28;20225;-66
2024/03/03 05:41:39;;;;;;;47.97;24.90;;;6.70;99.90;;;;;;5006234;28;20190;-65
2024/03/03 05:44:07;;;;;;;50.97;24.70;;;6.70;99.90;;;;;;4994235;28;20203;-65
2024/03/03 05:46:38;;;;;;;46.10;25.83;;;6.70;99.90;;;;;;4992837;28;20318;-65
2024/03/03 05:49:06;;;;;;;49.07;25.40;;;6.70;99.90;;;;;;4987401;28;20226;-65
2024/03/03 05:51:35;;;;;;;45.30;23.63;;;6.70;99.90;;;;;;4992762;28;20221;-66
2024/03/03 05:54:03;;;;;;;50.27;24.90;;;6.70;99.90;;;;;;5001051;28;20226;-65
2024/03/03 05:56:33;;;;;;;53.90;26.07;;;6.70;99.90;;;;;;5008698;28;20226;-66
2024/03/03 05:59:05;;;;;;;53.17;25.83;;;6.70;99.90;;;;;;5003558;28;20291;-65
2024/03/03 06:01:34;;;;;;;55.43;26.33;;;6.70;99.90;;;;;;5003938;28;21135;-65
2024/03/03 06:04:04;;;;;;;51.57;25.40;;;6.70;99.90;;;;;;5008023;28;20226;-66
2024/03/03 06:06:32;;;;;;;52.27;26.00;;;6.70;99.90;;;;;;5004335;28;20302;-65
2024/03/03 06:09:00;;;;;;;48.87;24.37;;;6.70;99.90;;;;;;4995471;28;20221;-65
2024/03/03 06:11:28;;;;;;;50.80;24.47;;;6.70;99.90;;;;;;4996536;28;20218;-65
2024/03/03 06:13:56;;;;;;;53.00;25.50;;;6.70;99.90;;;;;;4993535;28;20194;-65
2024/03/03 06:16:25;;;;;;;52.50;25.33;;;6.70;99.90;;;;;;4992081;28;20222;-65
2024/03/03 06:18:54;;;;;;;58.47;26.43;;;6.70;99.90;;;;;;4999157;28;20940;-65
2024/03/03 06:21:25;;;;;;;54.40;26.17;;;6.70;99.90;;;;;;4993966;28;20214;-66
2024/03/03 06:23:54;;;;;;;51.30;24.90;;;6.70;99.90;;;;;;4994647;28;20214;-65
2024/03/03 06:26:24;;;;;;;52.87;26.03;;;6.70;99.90;;;;;;4989134;28;20274;-65
2024/03/03 06:28:53;;;;;;;52.17;26.33;;;6.70;99.90;;;;;;4999165;28;20199;-65
2024/03/03 06:31:21;;;;;;;57.17;26.10;;;6.70;99.90;;;;;;4995605;28;20741;-65
2024/03/03 06:33:49;;;;;;;54.57;26.50;;;6.70;99.90;;;;;;4998936;28;20218;-65
2024/03/03 06:36:18;;;;;;;53.23;26.10;;;6.70;99.90;;;;;;4994413;28;20600;-65
2024/03/03 06:38:48;;;;;;;52.30;25.77;;;6.70;99.90;;;;;;4992308;28;20623;-65
2024/03/03 06:41:16;;;;;;;51.83;25.30;;;6.70;99.90;;;;;;4993527;28;20187;-65
2024/03/03 06:43:45;;;;;;;57.97;25.87;;;6.70;99.90;;;;;;4990656;28;20347;-65
2024/03/03 06:46:13;;;;;;;50.13;24.27;;;6.70;99.90;;;;;;4996708;28;20217;-66
2024/03/03 06:48:42;;;;;;;44.03;23.43;;;6.70;99.90;;;;;;4994942;28;20221;-65
2024/03/03 06:51:11;;;;;;;48.20;24.20;;;6.80;99.90;;;;;;4996036;28;20257;-65
2024/03/03 06:53:39;;;;;;;49.27;24.20;;;6.70;99.90;;;;;;4999146;28;20285;-65
2024/03/03 06:56:14;;;;;;;53.83;25.00;;;6.70;99.90;;;;;;4989720;28;20223;-65
2024/03/03 06:58:44;;;;;;;55.30;25.93;;;6.80;99.90;;;;;;5021895;28;20217;-65
2024/03/03 07:01:12;;;;;;;48.93;24.63;;;6.80;99.90;;;;;;4999658;28;20218;-65
2024/03/03 07:04:10;;;;;;;49.43;24.00;;;6.80;99.90;;;;;;4996299;28;20770;-65
2024/03/03 07:06:38;;;;;;;56.37;24.77;;;6.80;99.90;;;;;;4991806;28;20732;-65
2024/03/03 07:09:08;;;;;;;49.03;23.80;;;6.80;99.90;;;;;;4989783;28;20222;-65
2024/03/03 07:11:37;;;;;;;48.90;22.87;;;6.80;99.90;;;;;;4996769;28;20190;-66
2024/03/03 07:14:06;;;;;;;48.93;21.80;;;6.80;99.90;;;;;;4995439;28;20229;-66
2024/03/03 07:16:37;;;;;;;45.57;20.90;;;6.80;99.90;;;;;;4992907;28;20226;-66
2024/03/03 07:19:05;;;;;;;46.93;21.47;;;6.80;99.90;;;;;;4991456;28;20218;-66
2024/03/03 07:21:33;;;;;;;48.97;21.77;;;6.80;99.90;;;;;;4999430;28;20221;-66
2024/03/03 07:24:02;;;;;;;48.63;22.00;;;6.80;99.90;;;;;;4990421;28;20258;-66
2024/03/03 07:26:30;;;;;;;42.83;19.40;;;6.80;99.90;;;;;;4992583;28;20190;-65
2024/03/03 07:29:02;;;;;;;37.80;19.10;;;6.80;99.90;;;;;;4989397;28;20226;-65
2024/03/03 07:31:30;;;;;;;44.03;20.50;;;6.90;99.90;;;;;;4996094;28;20277;-65
2024/03/03 07:33:59;;;;;;;43.03;19.93;;;6.90;99.90;;;;;;4997332;28;20222;-65
2024/03/03 07:36:27;;;;;;;45.80;19.50;;;6.90;99.90;;;;;;4996126;28;20272;-65
2024/03/03 07:38:56;;;;;;;40.27;18.73;;;6.90;99.90;;;;;;4994117;28;20218;-65
2024/03/03 07:41:24;;;;;;;43.40;20.07;;;6.90;99.90;;;;;;4993831;28;20222;-65
2024/03/03 07:43:52;;;;;;;53.97;21.07;;;6.90;99.90;;;;;;4994429;28;20199;-66
2024/03/03 07:46:22;;;;;;;44.30;20.70;;;7.00;99.90;;;;;;4997017;28;20226;-65
2024/03/03 07:48:50;;;;;;;45.63;20.67;;;7.00;99.90;;;;;;4982251;28;20697;-65
2024/03/03 07:51:21;;;;;;;43.83;19.80;;;7.00;99.90;;;;;;4986759;28;20501;-65
2024/03/03 07:53:50;;;;;;;47.43;20.13;;;7.10;99.90;;;;;;4992861;28;20698;-65
2024/03/03 07:56:18;;;;;;;44.63;19.57;;;7.10;99.90;;;;;;4989975;28;20563;-65
2024/03/03 07:58:46;;;;;;;41.60;18.03;;;7.10;99.90;;;;;;4994926;28;20497;-65
2024/03/03 08:01:14;;;;;;;39.40;17.27;;;7.00;99.90;;;;;;4996019;28;20225;-66
2024/03/03 08:03:44;;;;;;;37.03;17.07;;;7.00;99.90;;;;;;4991620;28;20214;-65
2024/03/03 08:06:13;;;;;;;37.20;17.40;;;7.00;99.90;;;;;;4998131;28;20747;-65
2024/03/03 08:08:41;;;;;;;36.97;15.80;;;7.00;99.90;;;;;;4997209;28;20233;-65
2024/03/03 08:11:09;;;;;;;32.20;15.43;;;7.00;99.90;;;;;;4994101;28;20197;-65
2024/03/03 08:13:37;;;;;;;31.80;14.47;;;7.10;99.90;;;;;;4996795;28;20218;-65
2024/03/03 08:16:06;;;;;;;29.97;14.47;;;7.10;99.90;;;;;;4995795;28;21161;-65
2024/03/03 08:18:35;;;;;;;23.17;12.80;;;7.10;99.90;;;;;;4997962;28;20562;-65
2024/03/03 08:21:05;;;;;;;29.73;13.13;;;7.10;99.90;;;;;;4995101;28;20222;-64
2024/03/03 08:23:33;;;;;;;25.43;13.03;;;7.20;99.90;;;;;;5007558;28;20203;-65
2024/03/03 08:26:02;;;;;;;24.67;12.03;;;7.20;99.90;;;;;;4999949;28;20191;-66
2024/03/03 08:28:30;;;;;;;23.27;12.40;;;7.30;99.90;;;;;;4996155;28;20234;-65
2024/03/03 08:30:58;;;;;;;22.70;12.33;;;7.30;99.90;;;;;;4995665;28;20222;-66
2024/03/03 08:33:27;;;;;;;24.53;11.63;;;7.40;99.90;;;;;;4994180;28;20219;-65
2024/03/03 08:35:55;;;;;;;18.77;11.03;;;7.40;99.90;;;;;;4998049;28;20272;-66
2024/03/03 08:38:25;;;;;;;18.83;9.77;;;7.50;99.90;;;;;;4997735;28;20222;-65
2024/03/03 08:40:53;;;;;;;18.70;9.23;;;7.50;99.90;;;;;;4995002;28;20203;-65
2024/03/03 08:43:21;;;;;;;13.00;8.70;;;7.50;99.90;;;;;;4996596;28;20225;-65
2024/03/03 08:45:50;;;;;;;14.90;8.47;;;7.50;99.90;;;;;;4996010;28;20229;-65
2024/03/03 08:48:18;;;;;;;13.23;8.30;;;7.50;99.90;;;;;;5003875;28;20299;-65
2024/03/03 08:50:47;;;;;;;12.70;7.57;;;7.50;99.90;;;;;;5008847;28;20721;-65
2024/03/03 08:53:15;;;;;;;11.27;7.53;;;7.40;99.90;;;;;;4995195;28;20589;-65
2024/03/03 08:55:45;;;;;;;15.40;7.93;;;7.40;99.90;;;;;;5010207;28;20305;-65
2024/03/03 08:58:13;;;;;;;13.47;8.77;;;7.50;99.90;;;;;;5016269;28;20232;-65
2024/03/03 09:00:42;;;;;;;10.73;7.73;;;7.50;99.90;;;;;;5001690;28;20697;-65
2024/03/03 09:03:10;;;;;;;13.07;8.30;;;7.50;99.90;;;;;;4988976;28;20229;-65
2024/03/03 09:05:38;;;;;;;13.40;8.97;;;7.50;99.90;;;;;;4999718;28;20191;-65
2024/03/03 09:08:07;;;;;;;14.53;8.93;;;7.50;99.90;;;;;;4995534;28;20322;-65
2024/03/03 09:10:36;;;;;;;13.77;8.83;;;7.50;99.90;;;;;;4999423;28;20218;-65
2024/03/03 09:13:06;;;;;;;20.73;11.63;;;7.60;99.90;;;;;;4992032;28;20300;-65
2024/03/03 09:15:34;;;;;;;20.27;12.07;;;7.60;99.90;;;;;;4990819;28;20227;-65
2024/03/03 09:18:02;;;;;;;21.50;12.00;;;7.60;99.90;;;;;;4988358;28;20246;-65
2024/03/03 09:20:31;;;;;;;17.63;11.27;;;7.60;99.90;;;;;;4998498;28;20206;-65
2024/03/03 09:23:00;;;;;;;15.90;11.30;;;7.60;99.90;;;;;;4998740;28;20527;-65
2024/03/03 09:25:28;;;;;;;18.77;12.60;;;7.60;99.90;;;;;;4993072;28;20218;-65
2024/03/03 09:27:57;;;;;;;16.93;11.90;;;7.70;99.90;;;;;;4996097;28;20218;-65
2024/03/03 09:30:27;;;;;;;18.60;12.30;;;7.70;99.90;;;;;;4994872;28;20253;-65
2024/03/03 09:32:55;;;;;;;16.90;11.70;;;7.80;99.90;;;;;;4988448;28;20226;-66
2024/03/03 09:35:23;;;;;;;13.10;10.50;;;7.80;99.90;;;;;;4990611;28;20226;-65
2024/03/03 09:37:52;;;;;;;15.27;11.13;;;7.80;99.90;;;;;;4986601;28;20304;-65
2024/03/03 09:40:23;;;;;;;15.13;12.20;;;7.90;99.90;;;;;;4988812;28;20437;-65
2024/03/03 09:42:54;;;;;;;14.97;10.63;;;8.10;99.90;;;;;;4990648;28;20265;-65
2024/03/03 09:45:25;;;;;;;14.97;11.13;;;8.10;99.90;;;;;;5001249;28;20213;-65
2024/03/03 09:47:56;;;;;;;15.63;11.93;;;8.10;99.90;;;;;;5004017;28;20244;-66
2024/03/03 09:50:26;;;;;;;16.13;12.17;;;8.10;99.90;;;;;;5006208;28;20285;-65
2024/03/03 09:52:56;;;;;;;16.10;11.27;;;8.10;99.90;;;;;;5002406;28;20199;-65
2024/03/03 09:55:25;;;;;;;17.87;11.60;;;8.10;99.90;;;;;;4996159;28;20628;-65
2024/03/03 09:57:54;;;;;;;16.37;11.23;;;8.20;99.90;;;;;;4988737;28;20761;-65
2024/03/03 10:00:23;;;;;;;20.07;12.27;;;8.30;99.90;;;;;;4990137;28;20226;-65
2024/03/03 10:02:53;;;;;;;15.20;11.40;;;8.50;99.90;;;;;;4989022;28;20261;-65
2024/03/03 10:05:23;;;;;;;21.83;12.63;;;8.60;99.90;;;;;;4987526;28;20276;-65
2024/03/03 10:07:56;;;;;;;15.93;11.83;;;8.70;99.90;;;;;;5005255;28;20237;-65
2024/03/03 10:10:28;;;;;;;15.13;11.47;;;8.80;99.90;;;;;;4993948;28;20226;-65
2024/03/03 10:12:58;;;;;;;17.17;12.57;;;8.80;99.90;;;;;;4993314;28;20249;-65
2024/03/03 10:15:27;;;;;;;16.80;12.47;;;8.90;99.90;;;;;;4989864;28;20231;-65
2024/03/03 10:17:55;;;;;;;16.27;12.80;;;8.80;99.90;;;;;;4991665;28;20939;-65
2024/03/03 10:20:26;;;;;;;20.10;14.13;;;8.80;99.90;;;;;;4992728;28;20205;-65
2024/03/03 10:22:55;;;;;;;17.97;13.20;;;8.80;99.90;;;;;;4994119;28;20209;-65
2024/03/03 10:25:24;;;;;;;17.90;13.03;;;8.70;99.90;;;;;;4991406;28;20226;-65
2024/03/03 10:27:53;;;;;;;20.87;13.97;;;8.70;99.90;;;;;;4994401;28;20238;-65
2024/03/03 10:30:22;;;;;;;19.23;13.57;;;8.70;99.90;;;;;;4985541;28;20301;-65
2024/03/03 10:32:51;;;;;;;18.40;13.50;;;8.60;99.90;;;;;;5000072;28;20916;-65
2024/03/03 10:35:19;;;;;;;20.87;13.97;;;8.60;99.90;;;;;;5009066;28;20204;-66
2024/03/03 10:37:52;;;;;;;21.43;13.83;;;8.70;99.90;;;;;;4988431;28;20222;-65
2024/03/03 10:40:21;;;;;;;22.17;14.80;;;8.80;99.90;;;;;;4988662;28;20226;-65
2024/03/03 10:42:50;;;;;;;18.80;13.97;;;8.90;99.90;;;;;;4988156;28;20215;-65
2024/03/03 10:45:19;;;;;;;22.73;14.60;;;8.90;99.90;;;;;;4995095;28;20756;-66
2024/03/03 10:47:48;;;;;;;21.90;14.07;;;8.90;99.90;;;;;;5009608;28;20222;-63
2024/03/03 10:50:17;;;;;;;21.67;14.80;;;8.80;99.90;;;;;;4985536;28;20191;-63
2024/03/03 10:52:46;;;;;;;20.10;14.10;;;8.80;99.90;;;;;;4991290;28;20274;-64
2024/03/03 10:55:16;;;;;;;24.77;15.80;;;8.80;99.90;;;;;;4991439;28;20248;-64
2024/03/03 10:57:45;;;;;;;22.43;15.20;;;8.90;99.90;;;;;;4988593;28;20210;-64
2024/03/03 11:00:22;;;;;;;20.33;14.33;;;8.90;99.90;;;;;;4985218;28;20585;-64
2024/03/03 11:02:52;;;;;;;24.73;14.73;;;9.00;99.90;;;;;;4997417;28;20226;-63
2024/03/03 11:05:21;;;;;;;24.43;15.93;;;9.00;99.90;;;;;;4991249;28;20194;-64
2024/03/03 11:07:51;;;;;;;23.40;15.77;;;9.10;99.90;;;;;;4992160;28;20239;-64
2024/03/03 11:10:20;;;;;;;24.43;16.57;;;9.10;99.90;;;;;;4983824;28;20218;-64
2024/03/03 11:12:51;;;;;;;25.50;17.47;;;9.30;99.90;;;;;;4990463;28;20236;-64
2024/03/03 11:15:21;;;;;;;24.00;16.17;;;9.50;99.90;;;;;;4998164;28;20712;-64
2024/03/03 11:17:57;;;;;;;25.87;17.07;;;9.50;99.90;;;;;;5006412;28;20253;-64
2024/03/03 11:20:34;;;;;;;27.80;18.17;;;9.60;99.90;;;;;;5015078;28;20185;-64
2024/03/03 11:23:15;;;;;;;27.07;16.87;;;9.50;99.90;;;;;;4990361;28;20626;-64
2024/03/03 11:25:59;;;;;;;32.23;19.90;;;9.60;99.90;;;;;;4986726;28;20214;-64
2024/03/03 11:28:29;;;;;;;28.83;18.70;;;9.50;99.90;;;;;;4995119;28;20251;-64
2024/03/03 11:30:58;;;;;;;29.40;18.27;;;9.40;99.90;;;;;;4991508;28;20230;-64
2024/03/03 11:33:27;;;;;;;30.50;18.93;;;9.30;99.90;;;;;;5000650;28;20221;-65
2024/03/03 11:35:56;;;;;;;28.37;18.57;;;9.20;99.90;;;;;;5007863;28;20792;-64
2024/03/03 11:38:27;;;;;;;27.20;19.13;;;9.20;99.90;;;;;;4994279;28;20590;-65
2024/03/03 11:40:56;;;;;;;31.30;20.23;;;9.10;99.90;;;;;;5001258;28;20201;-65
2024/03/03 11:43:29;;;;;;;28.43;18.23;;;9.10;99.90;;;;;;4991159;28;20211;-65
2024/03/03 11:45:58;;;;;;;33.50;20.77;;;9.10;99.90;;;;;;5003234;28;20217;-64
2024/03/03 11:48:29;;;;;;;33.17;20.90;;;9.00;99.90;;;;;;5013149;28;20221;-65
2024/03/03 11:51:27;;;;;;;37.93;21.70;;;9.00;99.90;;;;;;5016282;28;20315;-65
2024/03/03 11:54:00;;;;;;;35.43;21.77;;;9.00;99.90;;;;;;5010095;28;20225;-64
2024/03/03 11:56:30;;;;;;;33.07;20.43;;;9.10;99.90;;;;;;5010291;28;20268;-64
2024/03/03 11:59:01;;;;;;;36.53;22.00;;;9.10;99.90;;;;;;5014037;28;20231;-65
2024/03/03 12:01:32;;;;;;;32.67;20.70;;;9.20;99.90;;;;;;5010070;28;20222;-65
2024/03/03 12:04:02;;;;;;;32.23;21.20;;;9.20;99.90;;;;;;5012437;28;20222;-65
2024/03/03 12:06:30;;;;;;;36.53;22.83;;;9.30;99.90;;;;;;5008715;28;22124;-64
2024/03/03 12:09:03;;;;;;;36.83;23.40;;;9.30;99.90;;;;;;5015405;28;20226;-65
2024/03/03 12:11:35;;;;;;;45.97;25.13;;;9.30;99.90;;;;;;5011183;28;20205;-64
2024/03/03 12:14:03;;;;;;;46.80;27.93;;;9.20;99.90;;;;;;5008907;28;20199;-64
2024/03/03 12:16:32;;;;;;;45.57;27.87;;;9.10;99.90;;;;;;5016634;28;20221;-64
2024/03/03 12:19:01;;;;;;;48.47;29.60;;;9.10;99.90;;;;;;5013436;28;20597;-64
2024/03/03 12:21:30;;;;;;;45.00;27.27;;;9.00;99.90;;;;;;5013245;28;20238;-64
2024/03/03 12:23:59;;;;;;;52.10;28.70;;;9.00;99.90;;;;;;5009200;28;20229;-65
2024/03/03 12:26:27;;;;;;;55.93;26.13;;;9.00;99.90;;;;;;5012659;28;20202;-64
2024/03/03 12:28:56;;;;;;;42.50;25.80;;;8.90;99.90;;;;;;5012862;28;20195;-65
2024/03/03 12:31:31;;;;;;;48.60;27.60;;;8.90;99.90;;;;;;5008800;28;20228;-64
2024/03/03 12:33:59;;;;;;;49.57;28.67;;;8.90;99.90;;;;;;5014432;28;20657;-64
2024/03/03 12:36:28;;;;;;;55.50;28.57;;;8.90;99.90;;;;;;5012561;28;20232;-65
2024/03/03 12:38:56;;;;;;;46.83;26.47;;;8.90;99.90;;;;;;5008018;28;20320;-64
2024/03/03 12:41:25;;;;;;;45.00;26.20;;;8.90;99.90;;;;;;5005149;28;20221;-65
2024/03/03 12:43:56;;;;;;;49.23;26.03;;;8.80;99.90;;;;;;5011949;28;20657;-65
2024/03/03 12:46:27;;;;;;;44.00;23.80;;;8.80;99.90;;;;;;5013286;28;20222;-64
2024/03/03 12:48:55;;;;;;;39.67;21.67;;;8.80;99.90;;;;;;5010944;28;20242;-64